Argonia, Kansas
Current Conditions -  °F | °C
As of 4:53 AM on Sunday 23 Nov 2014 (Local Time) from KICT Reporting Station
Overcast Overcast  
Wind Chill: 55°   Ceiling: 1300
Heat Index: 55°   Visibility: 10mi
Dew Point: 51°   Wind: 15mph
Humidity: 86%   Direction: 160°SSE
Pressure: 29.47"   Gusts: NA
Location:  37.27°N, 97.77°W
Report Text: KICT 231053Z 16013KT 10SM BKN013 OVC018 13/11 A2947 RMK AO2 SLP973 T01280106
Loading
Personal Weather Stations






























Interactive Weather Map New forecast layout! Learn more

10-Day Weather Forecast

Advertisements
Track Severe Weather on mobile